You are listening to:
ESOW Twr/CTAF/Control - Stockholm, Sweden

ESOW 190820Z 04006KT 010V070 CAVOK 12/M02 Q1029

If stream doesn't start automatically press the play button
If stream stops then reload player then press play